Welcome to Des Moines Iowa Weather. I am an independent private personal weather station on the Northwest Side of Des Moines, Iowa. Just East of Windsor Heights and just West of Glendale . This site is also mobile friendly.

There are no active watches, warnings or advisories


Visit our other weather sites:

Historical Data

Weather Station Setup



Weather Underground History page Text

Daily Summary for June 26, 2017 Units:  English    Metric   Both
« Previous Day
Next Day »
Daily Weekly Monthly Yearly Custom
  High: Low: Average:
Temperature: 74.5 °F 53.9 °F 62.7 °F
Dew Point: 59.0 °F 45.0 °F 51.7 °F
Humidity: 95 % 40 % 70 %
Wind Speed: 4.0 mph 0.0 mph 0.5 mph
Wind Gust: 10.0 mph - -
Wind:- - South
Pressure: 30.20 in 30.06 in -
Precipitation: 0.32 in    
Historical Graphs
 
 
Tabular Data for June 26, 2017
Time Temperature Dew Point Pressure Wind Wind Speed Wind Gust Humidity Rainfall Rate (Hourly)
00:10 57.6 °F 47.0 °F 30.16 in Calm     69 % 0.00 in
00:25 57.1 °F 47.0 °F 30.16 in Calm     70 % 0.00 in
00:40 56.6 °F 48.0 °F 30.16 in Calm     72 % 0.00 in
00:55 56.1 °F 48.0 °F 30.15 in Calm     73 % 0.00 in
01:10 55.8 °F 48.0 °F 30.15 in Calm     74 % 0.00 in
01:25 55.4 °F 48.0 °F 30.14 in Calm     75 % 0.00 in
01:40 55.1 °F 48.0 °F 30.14 in Calm     76 % 0.00 in
01:55 54.7 °F 48.0 °F 30.14 in Calm     78 % 0.00 in
02:10 54.5 °F 48.0 °F 30.14 in Calm     80 % 0.00 in
02:25 54.2 °F 49.0 °F 30.14 in Calm     81 % 0.00 in
02:40 53.9 °F 49.0 °F 30.14 in Calm     82 % 0.00 in
02:55 54.0 °F 50.0 °F 30.17 in Calm     85 % 0.00 in
03:10 54.4 °F 50.0 °F 30.19 in Calm   3.0 mph 85 % 0.00 in
03:25 55.3 °F 50.0 °F 30.17 in Calm     83 % 0.00 in
03:40 55.7 °F 51.0 °F 30.17 in Calm     83 % 0.00 in
03:55 55.8 °F 51.0 °F 30.16 in Calm     83 % 0.00 in
04:10 55.8 °F 51.0 °F 30.18 in Calm     83 % 0.00 in
04:25 55.8 °F 51.0 °F 30.18 in Calm     83 % 0.00 in
04:40 55.9 °F 51.0 °F 30.20 in NNW 1.0 mph 4.0 mph 83 % 0.00 in
04:55 56.7 °F 51.0 °F 30.20 in NNE 1.0 mph 9.0 mph 81 % 0.00 in
05:10 56.8 °F 52.0 °F 30.19 in Calm   3.0 mph 84 % 0.01 in
05:25 56.4 °F 52.0 °F 30.20 in Calm   2.0 mph 86 % 0.03 in
05:40 56.2 °F 53.0 °F 30.17 in NNE 1.0 mph 2.0 mph 88 % 0.06 in
05:55 55.9 °F 53.0 °F 30.17 in Calm   1.0 mph 89 % 0.08 in
06:11 55.8 °F 53.0 °F 30.17 in Calm     90 % 0.07 in
06:25 55.8 °F 53.0 °F 30.18 in Calm     91 % 0.05 in
06:40 55.8 °F 53.0 °F 30.20 in Calm     91 % 0.04 in
06:55 56.0 °F 54.0 °F 30.19 in Calm   3.0 mph 92 % 0.08 in
07:10 55.9 °F 54.0 °F 30.17 in NNE 1.0 mph 3.0 mph 92 % 0.12 in
07:25 55.6 °F 53.0 °F 30.17 in Calm   5.0 mph 92 % 0.14 in
07:40 55.4 °F 54.0 °F 30.17 in Calm   3.0 mph 93 % 0.16 in
07:55 55.3 °F 53.0 °F 30.16 in Calm   3.0 mph 93 % 0.15 in
08:11 55.3 °F 53.0 °F 30.15 in Calm     93 % 0.12 in
08:25 55.7 °F 54.0 °F 30.15 in Calm     94 % 0.10 in
08:41 56.6 °F 55.0 °F 30.16 in Calm   1.0 mph 94 % 0.06 in
08:56 57.5 °F 56.0 °F 30.16 in Calm     94 % 0.01 in
09:11 58.4 °F 57.0 °F 30.17 in Calm     95 % 0.00 in
09:26 58.8 °F 57.0 °F 30.17 in Calm   1.0 mph 94 % 0.00 in
09:41 58.7 °F 57.0 °F 30.18 in Calm   2.0 mph 94 % 0.00 in
09:56 59.1 °F 57.0 °F 30.17 in Calm     93 % 0.00 in
10:11 59.2 °F 57.0 °F 30.17 in East 2.0 mph 2.0 mph 92 % 0.00 in
10:26 59.7 °F 57.0 °F 30.17 in Calm   2.0 mph 91 % 0.00 in
10:41 60.5 °F 57.0 °F 30.17 in Calm   3.0 mph 88 % 0.00 in
10:56 61.4 °F 57.0 °F 30.17 in Calm   2.0 mph 86 % 0.00 in
11:11 62.3 °F 57.0 °F 30.16 in East 1.0 mph 3.0 mph 83 % 0.00 in
11:26 64.3 °F 58.0 °F 30.16 in Calm   3.0 mph 80 % 0.00 in
11:41 65.7 °F 57.0 °F 30.15 in Calm   5.0 mph 74 % 0.00 in
11:56 66.9 °F 58.0 °F 30.15 in North 2.0 mph 4.0 mph 74 % 0.00 in
12:11 66.7 °F 58.0 °F 30.15 in NE 1.0 mph 3.0 mph 73 % 0.00 in
12:26 66.6 °F 58.0 °F 30.15 in Calm   2.0 mph 73 % 0.00 in
12:41 67.9 °F 57.0 °F 30.14 in Calm   4.0 mph 69 % 0.00 in
12:56 69.3 °F 59.0 °F 30.13 in Calm   4.0 mph 70 % 0.00 in
13:11 69.7 °F 56.0 °F 30.13 in Calm   4.0 mph 63 % 0.00 in
13:26 69.5 °F 56.0 °F 30.12 in NNE 2.0 mph 5.0 mph 63 % 0.00 in
13:41 69.9 °F 57.0 °F 30.11 in Calm   3.0 mph 64 % 0.00 in
13:56 68.2 °F 56.0 °F 30.11 in Calm   5.0 mph 65 % 0.00 in
14:12 70.2 °F 58.0 °F 30.11 in Calm   6.0 mph 65 % 0.00 in
14:27 71.9 °F 56.0 °F 30.10 in Calm   3.0 mph 57 % 0.00 in
14:42 71.7 °F 55.0 °F 30.09 in Calm   5.0 mph 56 % 0.00 in
14:57 71.0 °F 55.0 °F 30.09 in NE 2.0 mph 4.0 mph 58 % 0.00 in
15:12 72.8 °F 55.0 °F 30.09 in NNW 3.0 mph 7.0 mph 53 % 0.00 in
15:27 70.1 °F 54.0 °F 30.09 in ENE 4.0 mph 10.0 mph 56 % 0.00 in
15:42 72.2 °F 54.0 °F 30.09 in WSW 3.0 mph 6.0 mph 53 % 0.00 in
15:57 73.2 °F 55.0 °F 30.08 in Calm   4.0 mph 53 % 0.00 in
16:12 72.9 °F 53.0 °F 30.07 in ENE 2.0 mph 8.0 mph 49 % 0.00 in
16:27 71.7 °F 51.0 °F 30.07 in Calm   4.0 mph 48 % 0.00 in
16:42 74.5 °F 53.0 °F 30.07 in WNW 1.0 mph 5.0 mph 48 % 0.00 in
16:57 73.0 °F 51.0 °F 30.07 in Calm   9.0 mph 46 % 0.00 in
17:12 74.1 °F 51.0 °F 30.07 in NNE 4.0 mph 8.0 mph 44 % 0.00 in
17:27 73.7 °F 50.0 °F 30.06 in Calm   3.0 mph 43 % 0.00 in
17:42 74.3 °F 49.0 °F 30.06 in Calm   5.0 mph 41 % 0.00 in
17:57 73.9 °F 48.0 °F 30.07 in NNW 3.0 mph 6.0 mph 40 % 0.00 in
18:12 73.6 °F 48.0 °F 30.06 in NE 3.0 mph 6.0 mph 40 % 0.00 in
18:27 72.6 °F 47.0 °F 30.06 in SE 1.0 mph 5.0 mph 40 % 0.00 in
18:42 71.7 °F 47.0 °F 30.06 in WNW 4.0 mph 6.0 mph 41 % 0.00 in
18:57 71.1 °F 46.0 °F 30.06 in NNW 3.0 mph 5.0 mph 41 % 0.00 in
19:13 70.5 °F 45.0 °F 30.06 in Calm   5.0 mph 40 % 0.00 in
19:27 70.1 °F 46.0 °F 30.07 in NW 1.0 mph 5.0 mph 42 % 0.00 in
19:42 69.7 °F 46.0 °F 30.07 in NW 1.0 mph 3.0 mph 43 % 0.00 in
19:57 69.4 °F 46.0 °F 30.07 in Calm   4.0 mph 43 % 0.00 in
20:12 68.9 °F 46.0 °F 30.07 in Calm   1.0 mph 44 % 0.00 in
20:27 68.3 °F 46.0 °F 30.07 in Calm   3.0 mph 45 % 0.00 in
20:42 67.7 °F 47.0 °F 30.07 in Calm     47 % 0.00 in
20:57 66.8 °F 47.0 °F 30.07 in Calm     49 % 0.00 in
21:12 65.6 °F 48.0 °F 30.08 in Calm     53 % 0.00 in
21:27 64.3 °F 48.0 °F 30.08 in Calm     55 % 0.00 in
21:42 63.2 °F 48.0 °F 30.09 in Calm     57 % 0.00 in
21:57 62.3 °F 48.0 °F 30.09 in Calm     59 % 0.00 in
22:12 61.3 °F 48.0 °F 30.10 in Calm     61 % 0.00 in
22:27 60.6 °F 48.0 °F 30.10 in Calm     63 % 0.00 in
22:42 60.0 °F 48.0 °F 30.10 in Calm     64 % 0.00 in
22:57 59.4 °F 48.0 °F 30.10 in Calm     66 % 0.00 in
23:12 58.9 °F 48.0 °F 30.11 in Calm     67 % 0.00 in
23:27 58.3 °F 47.0 °F 30.11 in Calm     67 % 0.00 in
23:42 57.9 °F 48.0 °F 30.11 in Calm     69 % 0.00 in
23:57 57.5 °F 47.0 °F 30.11 in Calm     69 % 0.00 in
Des Moines Weather and Climate
Compliments of Weather Underground - 3 mb

Script developed by  Jim McMurry - jmcmurry@mwt.net Adapted for the template by  Wim van der Kuil - Leuven-Template.eu

You find our weather info also at:

Weather Underground

Equipment we use:

Weather-station
Davis VP2 Plus

Weather-program
Davis Weatherlink.Com

Weather-server
iMac (Retina 4K, 21.5-inch, Late 2015)

Provider
Hostmonster.com

Davis VP2 Plus

Davis Weatherlink.Com

iMac (Retina 4K, 21.5-inch, Late 2015)

Hostmonster.com